• Join FlightAware (Why Join?)
  • Login
  • US Flag 
02:07PM EST


 

Airport Tracker/Info


-or-


 

Live Flight TrackerFlight Track Log ✈ ACA831 ✈ 29-Apr-2013 ✈ LSGG / GVA - CYUL

Flight Track Log - Related Links

Times and Time Zones

All times are in EDT time to prevent confusion due to time zone crossing. See the ACA831 flight status page for this flight to view local times or setup timezone preferences in your user account.

Time Position Orientation Groundspeed Altitude Reporting Facility
EDT Latitude Longitude Course Direction KTS MPH feet Rate Location/Type
07:13AM 46.2250 6.0850 230° Southwest 182 209 2,200  Level FlightAware
07:14AM 46.2010 6.0500 225° Southwest 189 217 3,700 2,160 Climbing FlightAware
07:14AM 46.1930 6.0390 224° Southwest 189 217 4,200 2,400 Climbing FlightAware
07:15AM 46.1760 6.0140 226° Southwest 191 220 5,300 2,700 Climbing FlightAware
07:15AM 46.1600 5.9850 231° Southwest 186 214 6,700 2,820 Climbing FlightAware
07:15AM 46.1560 5.9700 249° West 189 217 7,200 2,160 Climbing FlightAware
07:16AM 46.1600 5.9430 282° West 212 244 7,800 1,380 Climbing FlightAware
07:16AM 46.1660 5.9310 306° West 239 275 7,900 960 Climbing FlightAware
07:16AM 46.1800 5.9160 323° Northwest 272 313 8,200 1,560 Climbing FlightAware
07:16AM 46.1990 5.9080 344° North 283 326 8,700 1,680 Climbing FlightAware
07:17AM 46.2390 5.8930 345° North 309 356 9,500 2,040 Climbing FlightAware
07:18AM 46.2910 5.8580 335° Northwest 320 368 11,100 2,160 Climbing FlightAware
07:18AM 46.3510 5.8180 335° Northwest 354 407 12,400 1,740 Climbing FlightAware
07:19AM 46.4230 5.7690 335° Northwest 404 465 13,600 2,280 Climbing FlightAware
07:20AM 46.4930 5.7120 331° Northwest 409 471 15,700 2,700 Climbing FlightAware
07:20AM 46.5680 5.6530 332° Northwest 422 486 17,500 2,580 Climbing FlightAware
07:21AM 46.6380 5.5990 332° Northwest 425 489 19,400 2,400 Climbing FlightAware
07:22AM 46.7140 5.5400 332° Northwest 439 505 20,900 2,040 Climbing FlightAware
07:22AM 46.7890 5.4810 332° Northwest 450 518 22,300 1,920 Climbing FlightAware
07:23AM 46.8610 5.4140 328° Northwest 455 524 23,500 1,680 Climbing FlightAware
07:24AM 46.9290 5.3190 316° Northwest 463 533 24,700 1,740 Climbing FlightAware
07:25AM 46.9910 5.2270 315° West 471 542 26,000 2,160 Climbing FlightAware
07:25AM 47.0570 5.1280 314° West 463 533 27,800 1,860 Climbing FlightAware
07:26AM 47.1170 5.0370 314° West 473 544 28,700 1,560 Climbing FlightAware
07:27AM 47.1750 4.9480 314° West 473 544 29,900 1,620 Climbing FlightAware
07:27AM 47.2370 4.8520 314° West 475 547 30,900 1,260 Climbing FlightAware
07:28AM 47.3060 4.7440 313° West 484 557 31,700 720 Climbing FlightAware
07:29AM 47.3680 4.6480 314° West 490 564 32,000 180 Climbing FlightAware
07:29AM 47.4310 4.5510 314° West 482 555 32,000  Level FlightAware
07:30AM 47.4990 4.4460 314° West 476 548 32,000  Level FlightAware
07:31AM 47.5640 4.3450 314° West 474 545 32,000  Level FlightAware
07:32AM 47.6220 4.2540 313° West 475 547 32,000  Level FlightAware
07:32AM 47.6820 4.1610 314° West 475 547 32,000  Level FlightAware
07:33AM 47.7510 4.0540 314° West 473 544 32,000  Level FlightAware
07:34AM 47.8150 3.9540 314° West 471 542 32,000  Level FlightAware
07:34AM 47.8830 3.8460 313° West 469 540 32,000  Level FlightAware
07:35AM 47.9440 3.7500 314° West 468 539 32,000  Level FlightAware
07:36AM 48.0010 3.6590 313° West 465 535 32,000  Level FlightAware
07:36AM 48.0650 3.5570 313° West 462 532 32,000  Level FlightAware
07:37AM 48.1250 3.4610 313° West 459 528 32,000  Level FlightAware
07:38AM 48.1920 3.3540 313° West 457 526 32,000  Level FlightAware
07:39AM 48.2490 3.2610 313° West 456 525 32,000 420 Level FlightAware
07:39AM 48.2943 3.1858 312° West 450 518 32,500 960 Climbing FlightAware ADS-B
07:40AM 48.3359 3.1179 313° West 440 506 33,000 840 Climbing FlightAware ADS-B
07:40AM 48.3804 3.0445 312° West 439 505 33,400 480 Climbing FlightAware ADS-B
07:41AM 48.4270 2.9380 303° West 413 475 33,700 360 Climbing FlightAware
07:41AM 48.4370 2.8820 285° West 407 468 33,800 360 Climbing FlightAware ADS-B
07:42AM 48.4512 2.7977 284° West 411 473 34,000 180 Climbing FlightAware ADS-B
07:42AM 48.4640 2.7160 283° West 412 474 34,000  Level FlightAware
07:43AM 48.4834 2.5971 284° West 414 476 34,000  Level FlightAware ADS-B
07:43AM 48.4969 2.5114 283° West 414 476 34,000  Level FlightAware ADS-B
07:44AM 48.5239 2.3416 284° West 418 481 34,000  Level FlightAware ADS-B
07:45AM 48.5376 2.2539 283° West 419 482 34,000  Level FlightAware ADS-B
07:45AM 48.5518 2.1622 283° West 420 483 34,000 -1,140 Level FlightAware ADS-B
07:46AM 48.5723 2.0217 283° West 454 522 32,500  Descending FlightAware UK
07:47AM 48.5790 1.9840 283° West 422 486 34,000  Climbing FlightAware
07:47AM 48.5858 1.9359 283° West 456 525 32,500  Descending FlightAware UK
07:47AM 48.5970 1.8680 283° West 425 489 34,000 2,460 Climbing FlightAware
07:47AM 48.6038 1.8256 284° West 425 489 34,000  Level FlightAware ADS-B
07:48AM 48.6167 1.7387 283° West 428 493 34,000 -1,560 Level FlightAware ADS-B
07:48AM 48.6267 1.6580 283° West 456 525 32,500  Descending FlightAware UK
07:49AM 48.6335 1.6225 283° West 430 495 34,000  Climbing FlightAware ADS-B
07:49AM 48.6419 1.5520 283° West 464 534 32,500 -2,100 Descending FlightAware UK
07:49AM 48.6495 1.4986 282° West 464 534 32,500 3,720 Level FlightAware UK
07:49AM 48.6520 1.4930 282° West 433 498 34,000  Climbing FlightAware
07:50AM 48.6658 1.3738 282° West 466 536 32,500  Descending FlightAware UK
07:50AM 48.6660 1.3720 282° West 428 493 34,000  Climbing FlightAware
07:50AM 48.6680 1.3018 282° West 462 532 32,500 -2,400 Descending FlightAware UK
07:51AM 48.6711 1.2492 275° West 460 529 32,500 4,500 Level FlightAware UK
07:51AM 48.6740 1.2460 275° West 417 480 34,000  Climbing FlightAware
07:51AM 48.6751 1.1976 275° West 450 518 32,500 -2,700 Descending FlightAware UK
07:51AM 48.6791 1.1460 277° West 450 518 32,500 3,060 Level FlightAware UK
07:51AM 48.6840 1.1220 277° West 411 473 34,000  Climbing FlightAware
07:52AM 48.6873 1.0434 277° West 448 516 32,500  Descending FlightAware UK
07:52AM 48.6930 1.0100 277° West 415 478 34,000  Climbing FlightAware
07:52AM 48.6947 0.9580 277° West 452 520 32,500 -2,340 Descending FlightAware UK
07:53AM 48.7008 0.8887 278° West 452 520 32,500 3,600 Level FlightAware UK
07:53AM 48.7030 0.8900 278° West 419 482 34,000  Climbing FlightAware
07:53AM 48.7098 0.7840 278° West 456 525 32,500  Descending FlightAware UK
07:54AM 48.7140 0.7550 278° West 422 486 34,000  Climbing FlightAware
07:54AM 48.7180 0.6788 278° West 460 529 32,500  Descending FlightAware UK
07:54AM 48.7230 0.6410 278° West 425 489 34,000  Climbing FlightAware
07:55AM 48.7260 0.5725 278° West 458 527 32,500 -2,280 Descending FlightAware UK
07:55AM 48.7300 0.5190 276° West 460 529 32,500 4,980 Level FlightAware UK
07:55AM 48.7320 0.5220 276° West 428 493 34,000  Climbing FlightAware
07:55AM 48.7338 0.4651 276° West 460 529 32,500 -2,520 Descending FlightAware UK
07:55AM 48.7376 0.4113 276° West 460 529 32,500 3,300 Level FlightAware UK
07:56AM 48.7410 0.3980 276° West 431 496 34,000  Climbing FlightAware
07:56AM 48.7445 0.3043 276° West 456 525 32,500  Descending FlightAware UK
07:56AM 48.7500 0.2530 276° West 435 501 34,000  Climbing FlightAware
07:57AM 48.7518 0.1957 276° West 460 529 32,500  Descending FlightAware UK
07:57AM 48.7590 0.1320 276° West 438 504 34,000  Climbing FlightAware
07:57AM 48.7606 0.0675 276° West 462 532 32,500  Descending FlightAware UK
07:58AM 48.7670 0.0070 276° West 440 506 34,000  Climbing FlightAware
07:58AM 48.7697 -0.0798 276° West 466 536 32,500  Descending FlightAware UK
07:58AM 48.7760 -0.1250 276° West 442 509 34,000  Climbing FlightAware
07:59AM 48.7766 -0.1913 276° West 466 536 32,500  Descending FlightAware UK
07:59AM 48.7810 -0.2120 276° West 440 506 34,000  Climbing FlightAware
07:59AM 48.7728 -0.3012 276° West 466 536 32,500 -2,160 Descending FlightAware UK
08:00AM 48.7694 -0.3552 265° West 466 536 32,500 2,880 Level FlightAware UK
08:00AM 48.7710 -0.3890 265° West 435 501 34,000  Climbing FlightAware
08:00AM 48.7632 -0.4464 265° West 464 534 32,500  Descending FlightAware UK
08:00AM 48.7630 -0.4970 265° West 435 501 34,000  Climbing FlightAware
08:01AM 48.7550 -0.5733 265° West 462 532 32,500 -2,160 Descending FlightAware UK
08:01AM 48.7515 -0.6270 264° West 464 534 32,500 4,260 Level FlightAware UK
08:01AM 48.7550 -0.6310 264° West 434 499 34,000  Climbing FlightAware
08:01AM 48.7480 -0.6813 264° West 462 532 32,500  Descending FlightAware UK
08:02AM 48.7480 -0.7360 264° West 434 499 34,000  Climbing FlightAware
08:02AM 48.7395 -0.8079 264° West 462 532 32,500 -2,580 Descending FlightAware UK
08:02AM 48.7360 -0.8623 264° West 462 532 32,500 3,180 Level FlightAware UK
08:03AM 48.7370 -0.8850 264° West 432 497 34,000  Climbing FlightAware
08:03AM 48.7297 -0.9526 264° West 460 529 32,500 -2,400 Descending FlightAware UK
08:03AM 48.7257 -1.0065 264° West 460 529 32,500 4,500 Level FlightAware UK
08:03AM 48.7290 -1.0070 264° West 432 497 34,000  Climbing FlightAware
08:04AM 48.7165 -1.1315 264° West 458 527 32,500  Descending FlightAware UK
08:04AM 48.7190 -1.1410 264° West 432 497 34,000 1,740 Climbing FlightAware
08:05AM 48.7140 -1.2740 267° West 434 499 34,000 -1,500 Level FlightAware
08:05AM 48.7192 -1.3661 267° West 456 525 32,500 -2,040 Descending FlightAware UK
08:06AM 48.7233 -1.4197 277° West 458 527 32,500  Level FlightAware UK
08:06AM 48.7268 -1.4739 276° West 458 527 32,500 2,520 Level FlightAware UK
08:06AM 48.7310 -1.5090 276° West 433 498 34,000  Climbing FlightAware
08:06AM 48.7325 -1.5823 276° West 460 529 32,500 -2,460 Descending FlightAware UK
08:07AM 48.7353 -1.6371 274° West 460 529 32,500 2,460 Level FlightAware UK
08:07AM 48.7390 -1.6680 274° West 433 498 34,000 1,380 Climbing FlightAware
08:08AM 48.7470 -1.8100 275° West 434 499 34,000 -1,200 Level FlightAware
08:08AM 48.7530 -1.9274 275° West 458 527 32,500  Descending FlightAware UK
08:08AM 48.7550 -1.9170 275° West 434 499 34,000  Climbing FlightAware
08:09AM 48.7567 -1.9811 275° West 460 529 32,500 -2,280 Descending FlightAware UK
08:09AM 48.7615 -2.0540 276° West 458 527 32,500 2,640 Level FlightAware UK
08:09AM 48.7650 -2.0660 276° West 435 501 34,000  Climbing FlightAware
08:10AM 48.7708 -2.1992 276° West 460 529 32,500 -1,680 Descending FlightAware UK
08:10AM 48.7742 -2.2533 276° West 460 529 32,500 4,080 Level FlightAware UK
08:10AM 48.7760 -2.2290 276° West 436 502 34,000  Climbing FlightAware
08:11AM 48.7791 -2.3267 276° West 458 527 32,500 -2,100 Descending FlightAware UK
08:11AM 48.7838 -2.4000 276° West 458 527 32,500 3,000 Level FlightAware UK
08:11AM 48.7860 -2.3890 276° West 436 502 34,000  Climbing FlightAware
08:11AM 48.7884 -2.4725 276° West 462 532 32,500  Descending FlightAware UK
08:12AM 48.7930 -2.5050 276° West 436 502 34,000  Climbing FlightAware
08:12AM 48.7968 -2.5998 276° West 460 529 32,500  Descending FlightAware UK
08:12AM 48.8010 -2.6220 276° West 435 501 34,000  Climbing FlightAware
08:13AM 48.8036 -2.7093 276° West 462 532 32,500 -2,340 Descending FlightAware UK
08:13AM 48.8083 -2.7823 276° West 460 529 32,500 1,980 Level FlightAware UK
08:13AM 48.8130 -2.8150 276° West 435 501 34,000  Climbing FlightAware
08:14AM 48.8149 -2.8917 276° West 462 532 32,500 -2,760 Descending FlightAware UK
08:14AM 48.8180 -2.9464 275° West 462 532 32,500 3,600 Level FlightAware UK
08:14AM 48.8190 -2.9210 275° West 435 501 34,000  Climbing FlightAware
08:14AM 48.8221 -3.0187 275° West 460 529 32,500 -2,580 Descending FlightAware UK
08:15AM 48.8250 -3.0734 275° West 462 532 32,500 3,180 Level FlightAware UK
08:15AM 48.8270 -3.0620 275° West 434 499 34,000  Climbing FlightAware
08:15AM 48.8299 -3.1640 275° West 460 529 32,500  Descending FlightAware UK
08:15AM 48.8330 -3.1950 275° West 434 499 34,000  Climbing FlightAware
08:16AM 48.8386 -3.3277 275° West 460 529 32,500  Descending FlightAware UK
08:16AM 48.8400 -3.3120 275° West 435 501 34,000  Climbing FlightAware
08:16AM 48.8426 -3.4006 275° West 460 529 32,500  Descending FlightAware UK
08:17AM 48.8460 -3.4180 275° West 435 501 34,000  Climbing FlightAware
08:17AM 48.8464 -3.4737 275° West 460 529 32,500 -3,480 Descending FlightAware UK
08:17AM 48.8500 -3.5462 275° West 462 532 32,500  Level FlightAware UK
08:18AM 48.8529 -3.6010 275° West 460 529 32,500 4,680 Level FlightAware UK
08:18AM 48.8540 -3.5740 275° West 436 502 34,000  Climbing FlightAware
08:18AM 48.8557 -3.6558 275° West 460 529 32,500  Descending FlightAware UK
08:18AM 48.8600 -3.7020 275° West 436 502 34,000  Climbing FlightAware
08:19AM 48.8643 -3.8205 275° West 462 532 32,500  Descending FlightAware UK
08:19AM 48.8650 -3.7940 275° West 436 502 34,000  Climbing FlightAware
08:19AM 48.8702 -3.9302 275° West 462 532 32,500  Descending FlightAware UK
08:20AM 48.8730 -3.9520 275° West 435 501 34,000 1,680 Climbing FlightAware
08:20AM 48.8780 -4.0430 275° West 435 501 34,000 -2,520 Level FlightAware
08:20AM 48.8783 -4.0946 275° West 460 529 32,500 -4,740 Descending FlightAware UK
08:21AM 48.8810 -4.1493 275° West 460 529 32,500  Level FlightAware UK
08:21AM 48.8845 -4.2222 274° West 460 529 32,500 3,420 Level FlightAware UK
08:21AM 48.8840 -4.1910 274° West 434 499 34,000  Climbing FlightAware
08:21AM 48.8870 -4.2762 274° West 460 529 32,500 -2,760 Descending FlightAware UK
08:22AM 48.8895 -4.3309 274° West 462 532 32,500 3,000 Level FlightAware UK
08:22AM 48.8910 -4.3230 274° West 434 499 34,000  Climbing FlightAware
08:22AM 48.8938 -4.4221 274° West 462 532 32,500 -1,920 Descending FlightAware UK
08:23AM 48.8979 -4.5132 274° West 462 532 32,500 2,100 Level FlightAware UK
08:23AM 48.8990 -4.5090 274° West 434 499 34,000  Climbing FlightAware
08:23AM 48.9017 -4.6044 274° West 460 529 32,500 -2,520 Descending FlightAware UK
08:23AM 48.9040 -4.6592 274° West 460 529 32,500 4,080 Level FlightAware UK
08:23AM 48.9040 -4.6270 274° West 433 498 34,000  Climbing FlightAware
08:24AM 48.9072 -4.7320 274° West 460 529 32,500 -2,400 Descending FlightAware UK
08:24AM 48.9095 -4.7866 274° West 460 529 32,500 4,500 Level FlightAware UK
08:24AM 48.9100 -4.7580 274° West 432 497 34,000  Climbing FlightAware
08:24AM 48.9119 -4.8412 274° West 460 529 32,500 -2,700 Descending FlightAware UK
08:25AM 48.9139 -4.8957 273° West 458 527 32,500 3,060 Level FlightAware UK
08:25AM 48.9150 -4.8850 273° West 432 497 34,000  Climbing FlightAware
08:25AM 48.9174 -4.9865 273° West 460 529 32,500 -2,460 Descending FlightAware UK
08:25AM 48.9196 -5.0409 274° West 458 527 32,500 4,260 Level FlightAware UK
08:25AM 48.9210 -5.0360 274° West 432 497 34,000  Climbing FlightAware
08:26AM 48.9218 -5.0948 274° West 460 529 32,500 -2,760 Descending FlightAware UK
08:26AM 48.9241 -5.1492 274° West 458 527 32,500  Level FlightAware UK
08:26AM 48.9263 -5.2037 273° West 460 529 32,500  Level FlightAware UK
08:27AM 48.9285 -5.2582 274° West 460 529 32,500  Level FlightAware UK
08:27AM 48.9306 -5.3128 273° West 460 529 32,500  Level FlightAware UK
08:27AM 48.9328 -5.3673 274° West 460 529 32,500  Level FlightAware UK
08:28AM 48.9349 -5.4219 273° West 460 529 32,500  Level FlightAware UK
08:28AM 48.9369 -5.4765 273° West 460 529 32,500  Level FlightAware UK
08:28AM 48.9387 -5.5312 273° West 460 529 32,500  Level FlightAware UK
08:28AM 48.9406 -5.5859 273° West 460 529 32,500  Level FlightAware UK
08:29AM 48.9425 -5.6406 273° West 460 529 32,500  Level FlightAware UK
08:29AM 48.9443 -5.6954 273° West 460 529 32,500  Level FlightAware UK
08:29AM 48.9461 -5.7501 273° West 460 529 32,500  Level FlightAware UK
08:30AM 48.9478 -5.8050 273° West 462 532 32,500  Level FlightAware UK
08:30AM 48.9496 -5.8591 273° West 462 532 32,500  Level FlightAware UK
08:30AM 48.9515 -5.9139 273° West 462 532 32,500  Level FlightAware UK
08:31AM 48.9531 -5.9686 273° West 462 532 32,500  Level FlightAware UK
08:31AM 48.9547 -6.0234 273° West 460 529 32,500 4,080 Level FlightAware UK
08:31AM 48.9550 -6.0250 273° West 434 499 34,000  Climbing FlightAware
08:31AM 48.9569 -6.0965 273° West 460 529 32,500 -2,400 Descending FlightAware UK
08:32AM 48.9585 -6.1512 273° West 460 529 32,500  Level FlightAware UK
08:32AM 48.9601 -6.2060 273° West 460 529 32,500  Level FlightAware UK
08:32AM 48.9617 -6.2607 273° West 460 529 32,500  Level FlightAware UK
08:32AM 48.9633 -6.3155 273° West 460 529 32,500  Level FlightAware UK
08:33AM 48.9650 -6.3702 273° West 460 529 32,500  Level FlightAware UK
08:33AM 48.9667 -6.4249 273° West 460 529 32,500  Level FlightAware UK
08:33AM 48.9682 -6.4798 272° West 460 529 32,500  Level FlightAware UK
08:34AM 48.9697 -6.5346 272° West 460 529 32,500  Level FlightAware UK
08:34AM 48.9746 -6.5888 278° West 460 529 32,500  Level FlightAware UK
08:34AM 48.9850 -6.6415 287° West 460 529 32,500  Level FlightAware UK
08:35AM 48.9944 -6.6949 285° West 460 529 32,500  Level FlightAware UK
08:35AM 49.0038 -6.7480 285° West 460 529 32,500  Level FlightAware UK
08:35AM 49.0125 -6.8012 284° West 460 529 32,500  Level FlightAware UK
08:35AM 49.0204 -6.8546 283° West 460 529 32,500  Level FlightAware UK
08:36AM 49.0280 -6.9083 282° West 460 529 32,500  Level FlightAware UK
08:36AM 49.0352 -6.9617 282° West 458 527 32,500  Level FlightAware UK
08:36AM 49.0424 -7.0156 282° West 458 527 32,500  Level FlightAware UK
08:37AM 49.0497 -7.0695 282° West 458 527 32,500  Level FlightAware UK
08:37AM 49.0571 -7.1234 282° West 458 527 32,500  Level FlightAware UK
08:37AM 49.0644 -7.1773 282° West 460 529 32,500  Level FlightAware UK
08:38AM 49.0720 -7.2312 282° West 460 529 32,500  Level FlightAware UK
08:38AM 49.0799 -7.2850 283° West 460 529 32,500 4,080 Level FlightAware UK
08:38AM 49.0800 -7.2810 283° West 436 502 34,000  Climbing FlightAware
08:38AM 49.0915 -7.3563 283° West 460 529 32,500 -2,400 Descending FlightAware UK
08:39AM 49.1003 -7.4098 284° West 460 529 32,500 4,500 Level FlightAware UK
08:39AM 49.0990 -7.4000 284° West 435 501 34,000  Climbing FlightAware
08:39AM 49.1088 -7.4634 284° West 460 529 32,500 -2,700 Descending FlightAware UK
08:39AM 49.1171 -7.5171 283° West 460 529 32,500 3,720 Level FlightAware UK
08:39AM 49.1160 -7.5130 283° West 435 501 34,000  Climbing FlightAware
08:40AM 49.1278 -7.5886 283° West 460 529 32,500 -2,520 Descending FlightAware UK
08:40AM 49.1359 -7.6423 283° West 460 529 32,500 3,300 Level FlightAware UK
08:40AM 49.1360 -7.6460 283° West 435 501 34,000  Climbing FlightAware
08:40AM 49.1465 -7.7140 283° West 460 529 32,500 -2,760 Descending FlightAware UK
08:41AM 49.1545 -7.7677 283° West 460 529 32,500 3,600 Level FlightAware UK
08:41AM 49.1560 -7.7770 283° West 436 502 34,000  Climbing FlightAware
08:41AM 49.1653 -7.8394 283° West 460 529 32,500 -2,580 Descending FlightAware UK
08:41AM 49.1736 -7.8930 283° West 460 529 32,500 3,180 Level FlightAware UK
08:41AM 49.1770 -7.9150 283° West 436 502 34,000  Climbing FlightAware
08:42AM 49.1874 -7.9825 283° West 458 527 32,500 -2,400 Descending FlightAware UK
08:42AM 49.1956 -8.0363 283° West 458 527 32,500 4,500 Level FlightAware UK
08:42AM 49.1950 -8.0360 283° West 436 502 34,000  Climbing FlightAware
08:42AM 49.2037 -8.0895 283° West 458 527 32,500 -2,700 Descending FlightAware UK
08:43AM 49.2118 -8.1433 283° West 458 527 32,500 3,060 Level FlightAware UK
08:43AM 49.2150 -8.1710 283° West 436 502 34,000  Climbing FlightAware
08:43AM 49.2252 -8.2332 283° West 458 527 32,500  Descending FlightAware UK
08:43AM 49.2330 -8.2920 283° West 437 503 34,000  Climbing FlightAware
08:44AM 49.2407 -8.3412 283° West 460 529 32,500 -2,760 Descending FlightAware UK
08:44AM 49.2484 -8.3954 282° West 460 529 32,500 3,600 Level FlightAware UK
08:44AM 49.2490 -8.4060 282° West 437 503 34,000  Climbing FlightAware
08:44AM 49.2588 -8.4675 282° West 460 529 32,500 -2,580 Descending FlightAware UK
08:45AM 49.2665 -8.5218 282° West 460 529 32,500 3,900 Level FlightAware UK
08:45AM 49.2660 -8.5210 282° West 437 503 34,000  Climbing FlightAware
08:45AM 49.2768 -8.5940 282° West 460 529 32,500 -2,460 Descending FlightAware UK
08:45AM 49.2846 -8.6483 282° West 460 529 32,500 3,420 Level FlightAware UK
08:46AM 49.2830 -8.6480 282° West 437 503 34,000  Climbing FlightAware
08:46AM 49.2949 -8.7206 282° West 460 529 32,500 -2,700 Descending FlightAware UK
08:46AM 49.3026 -8.7748 282° West 460 529 32,500 3,720 Level FlightAware UK
08:46AM 49.2980 -8.7510 282° West 437 503 34,000  Climbing FlightAware
08:47AM 49.3129 -8.8472 282° West 460 529 32,500 -2,520 Descending FlightAware UK
08:47AM 49.3206 -8.9015 282° West 460 529 32,500 4,080 Level FlightAware UK
08:47AM 49.3120 -8.8540 282° West 437 503 34,000  Climbing FlightAware
08:47AM 49.3308 -8.9739 282° West 460 529 32,500  Descending FlightAware UK
08:48AM 49.3260 -8.9570 282° West 437 503 34,000 1,260 Climbing FlightAware
08:48AM 49.3440 -9.0860 282° West 437 503 34,000  Level FlightAware
08:49AM 49.3580 -9.1890 282° West 437 503 34,000  Level FlightAware
08:50AM 49.3720 -9.2920 282° West 437 503 34,000  Level FlightAware
08:50AM 49.3870 -9.3960 283° West 437 503 34,000  Level FlightAware
08:51AM 49.4010 -9.4990 282° West 437 503 34,000  Level FlightAware
08:52AM 49.4190 -9.6280 282° West 437 503 34,000  Level FlightAware
08:53AM 49.4330 -9.7320 282° West 437 503 34,000  Level FlightAware
08:53AM 49.4470 -9.8350 282° West 437 503 34,000  Level FlightAware
08:54AM 49.4620 -9.9380 283° West 437 503 34,000  Level FlightAware
08:55AM 49.4760 -10.0420 282° West 437 503 34,000  Level FlightAware
08:57AM 49.5536 -10.3755 290° West  Level Estimated
08:58AM 49.5927 -10.5455 290° West  Level Estimated
08:59AM 49.6316 -10.7157 289° West  Level Estimated
09:00AM 49.6702 -10.8862 289° West  Level Estimated
09:01AM 49.7086 -11.0570 289° West  Level Estimated
09:02AM 49.7467 -11.2281 289° West  Level Estimated
09:03AM 49.7845 -11.3994 289° West  Level Estimated
09:04AM 49.8221 -11.5710 289° West  Level Estimated
09:05AM 49.8595 -11.7429 289° West  Level Estimated
09:06AM 49.8966 -11.9150 289° West  Level Estimated
09:07AM 49.9334 -12.0874 288° West  Level Estimated
09:08AM 49.9700 -12.2600 288° West  Level Estimated
09:09AM 50.0063 -12.4330 288° West  Level Estimated
09:10AM 50.0424 -12.6061 288° West  Level Estimated
09:11AM 50.0782 -12.7796 288° West  Level Estimated
09:12AM 50.1137 -12.9533 288° West  Level Estimated
09:13AM 50.1490 -13.1272 288° West  Level Estimated
09:14AM 50.1841 -13.3014 287° West  Level Estimated
09:15AM 50.2188 -13.4759 287° West  Level Estimated
09:16AM 50.2533 -13.6506 287° West  Level Estimated
09:17AM 50.2876 -13.8256 287° West  Level Estimated
09:18AM 50.3215 -14.0008 287° West  Level Estimated
09:19AM 50.3553 -14.1763 287° West  Level Estimated
09:20AM 50.3887 -14.3520 287° West  Level Estimated
09:21AM 50.4219 -14.5280 287° West  Level Estimated
09:22AM 50.4548 -14.7042 286° West  Level Estimated
09:23AM 50.4875 -14.8806 286° West  Level Estimated
09:24AM 50.5200 -15.0577 286° West  Level Estimated
09:25AM 50.5521 -15.2350 286° West  Level Estimated
09:26AM 50.5841 -15.4126 286° West  Level Estimated
09:27AM 50.6157 -15.5904 286° West  Level Estimated
09:28AM 50.6471 -15.7685 286° West  Level Estimated
09:29AM 50.6782 -15.9467 285° West  Level Estimated
09:30AM 50.7090 -16.1253 285° West  Level Estimated
09:31AM 50.7396 -16.3040 285° West  Level Estimated
09:32AM 50.7699 -16.4830 285° West  Level Estimated
09:33AM 50.7999 -16.6622 285° West  Level Estimated
09:34AM 50.8297 -16.8417 285° West  Level Estimated
09:35AM 50.8591 -17.0213 285° West  Level Estimated
09:36AM 50.8894 -17.2080 284° West  Level Estimated
09:37AM 50.9194 -17.3949 284° West  Level Estimated
09:38AM 50.9491 -17.5821 284° West  Level Estimated
09:39AM 50.9784 -17.7695 284° West  Level Estimated
09:40AM 51.0075 -17.9571 284° West  Level Estimated
09:41AM 51.0363 -18.1450 284° West  Level Estimated
09:42AM 51.0648 -18.3331 284° West  Level Estimated
09:43AM 51.0930 -18.5214 283° West  Level Estimated
09:44AM 51.1208 -18.7100 283° West  Level Estimated
09:45AM 51.1484 -18.8987 283° West  Level Estimated
09:46AM 51.1757 -19.0877 283° West  Level Estimated
09:47AM 51.2026 -19.2770 283° West  Level Estimated
09:47AM 50.0000 -20.0000 265° West 429 494 34,000  Level ETMS Enhanced Traffic Management System
09:48AM 51.2293 -19.4664 283° West  Level Estimated
09:49AM 51.2557 -19.6561 283° West  Level Estimated
09:50AM 51.2811 -19.8418 282° West  Level Estimated
09:51AM 51.3063 -20.0277 282° West  Level Estimated
09:52AM 51.3312 -20.2138 282° West  Level Estimated
09:53AM 49.9211 -21.2932 264° West 429 494 34,000  Level FlightAware Transoceanic
09:54AM 49.9086 -21.4776 264° West 429 494 34,000  Level FlightAware Transoceanic
09:55AM 49.8959 -21.6619 264° West 429 494 34,000  Level FlightAware Transoceanic
09:56AM 49.8828 -21.8461 264° West 429 494 34,000  Level FlightAware Transoceanic
09:57AM 49.8695 -22.0301 264° West 429 494 34,000  Level FlightAware Transoceanic
09:58AM 49.8559 -22.2141 263° West 429 494 34,000  Level FlightAware Transoceanic
09:59AM 49.8420 -22.3980 263° West 429 494 34,000  Level FlightAware Transoceanic
10:00AM 49.8278 -22.5818 263° West 429 494 34,000  Level FlightAware Transoceanic
10:01AM 49.8133 -22.7654 263° West 429 494 34,000  Level FlightAware Transoceanic
10:02AM 49.7985 -22.9490 263° West 429 494 34,000  Level FlightAware Transoceanic
10:03AM 49.7835 -23.1324 263° West 429 494 34,000  Level FlightAware Transoceanic
10:04AM 49.7681 -23.3158 263° West 429 494 34,000  Level FlightAware Transoceanic
10:05AM 49.7524 -23.4990 262° West 429 494 34,000  Level FlightAware Transoceanic
10:06AM 49.7365 -23.6821 262° West 429 494 34,000  Level FlightAware Transoceanic
10:07AM 49.7203 -23.8650 262° West 429 494 34,000  Level FlightAware Transoceanic
10:08AM 49.7038 -24.0479 262° West 429 494 34,000  Level FlightAware Transoceanic
10:09AM 49.6870 -24.2306 262° West 429 494 34,000  Level FlightAware Transoceanic
10:10AM 49.6699 -24.4132 262° West 429 494 34,000  Level FlightAware Transoceanic
10:11AM 49.6525 -24.5956 262° West 429 494 34,000  Level FlightAware Transoceanic
10:12AM 49.6349 -24.7780 261° West 429 494 34,000  Level FlightAware Transoceanic
10:13AM 49.6169 -24.9602 261° West 429 494 34,000  Level FlightAware Transoceanic
10:14AM 49.5987 -25.1422 261° West 429 494 34,000  Level FlightAware Transoceanic
10:15AM 49.5802 -25.3242 261° West 429 494 34,000  Level FlightAware Transoceanic
10:16AM 49.5614 -25.5059 261° West 429 494 34,000  Level FlightAware Transoceanic
10:17AM 49.5423 -25.6876 261° West 429 494 34,000  Level FlightAware Transoceanic
10:18AM 49.5229 -25.8691 261° West 429 494 34,000  Level FlightAware Transoceanic
10:19AM 49.5033 -26.0504 260° West 429 494 34,000  Level FlightAware Transoceanic
10:20AM 49.4833 -26.2317 260° West 429 494 34,000  Level FlightAware Transoceanic
10:21AM 49.4631 -26.4127 260° West 429 494 34,000  Level FlightAware Transoceanic
10:22AM 49.4426 -26.5936 260° West 429 494 34,000  Level FlightAware Transoceanic
10:23AM 49.4218 -26.7744 260° West 429 494 34,000  Level FlightAware Transoceanic
10:24AM 49.4007 -26.9550 260° West 429 494 34,000  Level FlightAware Transoceanic
10:25AM 49.3794 -27.1355 260° West 429 494 34,000  Level FlightAware Transoceanic
10:26AM 49.3578 -27.3157 259° West 429 494 34,000  Level FlightAware Transoceanic
10:27AM 49.3359 -27.4959 259° West 429 494 34,000  Level FlightAware Transoceanic
10:28AM 49.3137 -27.6758 259° West 429 494 34,000  Level FlightAware Transoceanic
10:29AM 49.2912 -27.8556 259° West 429 494 34,000  Level FlightAware Transoceanic
10:30AM 49.2685 -28.0353 259° West 429 494 34,000  Level FlightAware Transoceanic
10:31AM 49.2454 -28.2148 259° West 429 494 34,000  Level FlightAware Transoceanic
10:32AM 49.2221 -28.3941 259° West 429 494 34,000  Level FlightAware Transoceanic
10:33AM 49.1986 -28.5732 259° West 429 494 34,000  Level FlightAware Transoceanic
10:34AM 49.1747 -28.7522 258° West 429 494 34,000  Level FlightAware Transoceanic
10:35AM 49.1506 -28.9310 258° West 429 494 34,000  Level FlightAware Transoceanic
10:36AM 49.1262 -29.1096 258° West 429 494 34,000  Level FlightAware Transoceanic
10:37AM 49.1015 -29.2880 258° West 429 494 34,000  Level FlightAware Transoceanic
10:38AM 49.0765 -29.4663 258° West 429 494 34,000  Level FlightAware Transoceanic
10:39AM 49.0513 -29.6444 258° West 429 494 34,000  Level FlightAware Transoceanic
10:40AM 49.0258 -29.8223 258° West 429 494 34,000  Level FlightAware Transoceanic
10:41AM 49.0001 -29.9994 258° West  Level FlightAware Approximate
10:42AM 48.9750 -30.1766 258° West  Level FlightAware Approximate
10:42AM 49.0000 -30.0000 265° West 446 513 34,000  Level ETMS Enhanced Traffic Management System
10:43AM 48.9900 -30.1793 265° West  Level FlightAware Approximate
10:44AM 48.9796 -30.3599 265° West  Level FlightAware Approximate
10:45AM 48.9689 -30.5404 265° West  Level FlightAware Approximate
10:46AM 48.9579 -30.7208 265° West  Level FlightAware Approximate
10:47AM 48.9467 -30.9011 265° West  Level FlightAware Approximate
10:48AM 48.9197 -31.3164 264° West 446 513 34,000  Level FlightAware Transoceanic
10:49AM 48.9070 -31.5041 264° West 446 513 34,000  Level FlightAware Transoceanic
10:50AM 48.8940 -31.6917 264° West 446 513 34,000  Level FlightAware Transoceanic
10:51AM 48.8807 -31.8792 264° West 446 513 34,000  Level FlightAware Transoceanic
10:52AM 48.8671 -32.0666 264° West 446 513 34,000  Level FlightAware Transoceanic
10:53AM 48.8532 -32.2538 263° West 446 513 34,000  Level FlightAware Transoceanic
10:54AM 48.8390 -32.4410 263° West 446 513 34,000  Level FlightAware Transoceanic
10:55AM 48.8245 -32.6281 263° West 446 513 34,000  Level FlightAware Transoceanic
10:56AM 48.8097 -32.8151 263° West 446 513 34,000  Level FlightAware Transoceanic
10:57AM 48.7945 -33.0019 263° West 446 513 34,000  Level FlightAware Transoceanic
10:58AM 48.7791 -33.1887 263° West 446 513 34,000  Level FlightAware Transoceanic
10:59AM 48.7634 -33.3753 263° West 446 513 34,000  Level FlightAware Transoceanic
11:00AM 48.7474 -33.5618 263° West 446 513 34,000  Level FlightAware Transoceanic
11:01AM 48.7310 -33.7482 262° West 446 513 34,000  Level FlightAware Transoceanic
11:02AM 48.7144 -33.9345 262° West 446 513 34,000  Level FlightAware Transoceanic
11:03AM 48.6975 -34.1207 262° West 446 513 34,000  Level FlightAware Transoceanic
11:04AM 48.6803 -34.3067 262° West 446 513 34,000  Level FlightAware Transoceanic
11:05AM 48.6627 -34.4926 262° West 446 513 34,000  Level FlightAware Transoceanic
11:06AM 48.6449 -34.6783 262° West 446 513 34,000  Level FlightAware Transoceanic
11:07AM 48.6268 -34.8639 262° West 446 513 34,000  Level FlightAware Transoceanic
11:08AM 48.6084 -35.0494 261° West 446 513 34,000  Level FlightAware Transoceanic
11:09AM 48.5896 -35.2348 261° West 446 513 34,000  Level FlightAware Transoceanic
11:10AM 48.5706 -35.4200 261° West 446 513 34,000  Level FlightAware Transoceanic
11:11AM 48.5513 -35.6051 261° West 446 513 34,000  Level FlightAware Transoceanic
11:12AM 48.5317 -35.7900 261° West 446 513 34,000  Level FlightAware Transoceanic
11:13AM 48.5118 -35.9748 261° West 446 513 34,000  Level FlightAware Transoceanic
11:14AM 48.4916 -36.1595 261° West 446 513 34,000  Level FlightAware Transoceanic
11:15AM 48.4711 -36.3440 260° West 446 513 34,000  Level FlightAware Transoceanic
11:16AM 48.4503 -36.5283 260° West 446 513 34,000  Level FlightAware Transoceanic
11:17AM 48.4292 -36.7125 260° West 446 513 34,000  Level FlightAware Transoceanic
11:18AM 48.4079 -36.8966 260° West 446 513 34,000  Level FlightAware Transoceanic
11:19AM 48.3862 -37.0805 260° West 446 513 34,000  Level FlightAware Transoceanic
11:20AM 48.3642 -37.2642 260° West 446 513 34,000  Level FlightAware Transoceanic
11:21AM 48.3420 -37.4478 260° West 446 513 34,000  Level FlightAware Transoceanic
11:22AM 48.3194 -37.6312 259° West 446 513 34,000  Level FlightAware Transoceanic
11:23AM 48.2966 -37.8144 259° West 446 513 34,000  Level FlightAware Transoceanic
11:24AM 48.2735 -37.9975 259° West 446 513 34,000  Level FlightAware Transoceanic
11:25AM 48.2500 -38.1804 259° West 446 513 34,000  Level FlightAware Transoceanic
11:26AM 48.2263 -38.3632 259° West 446 513 34,000  Level FlightAware Transoceanic
11:27AM 48.2023 -38.5457 259° West 446 513 34,000  Level FlightAware Transoceanic
11:28AM 48.1781 -38.7281 259° West 446 513 34,000  Level FlightAware Transoceanic
11:29AM 48.1535 -38.9104 259° West 446 513 34,000  Level FlightAware Transoceanic
11:30AM 48.1286 -39.0924 258° West 446 513 34,000  Level FlightAware Transoceanic
11:31AM 48.1035 -39.2743 258° West 446 513 34,000  Level FlightAware Transoceanic
11:32AM 48.0780 -39.4560 258° West 446 513 34,000  Level FlightAware Transoceanic
11:33AM 48.0523 -39.6375 258° West 446 513 34,000  Level FlightAware Transoceanic
11:34AM 48.0263 -39.8189 258° West 446 513 34,000  Level FlightAware Transoceanic
11:35AM 48.0011 -39.9926 258° West  Level FlightAware Approximate
11:36AM 47.9755 -40.1662 258° West  Level FlightAware Approximate
11:37AM 47.9901 -40.1620 265° West  Level FlightAware Approximate
11:37AM 48.0000 -40.0000 265° West 463 533 34,000  Level ETMS Enhanced Traffic Management System
11:38AM 47.9791 -40.3389 265° West  Level FlightAware Approximate
11:39AM 47.9678 -40.5158 265° West  Level FlightAware Approximate
11:40AM 47.9562 -40.6922 264° West  Level FlightAware Approximate
11:41AM 47.9444 -40.8685 264° West  Level FlightAware Approximate
11:42AM 47.9323 -41.0448 264° West  Level FlightAware Approximate
11:43AM 47.9199 -41.2210 264° West  Level FlightAware Approximate
11:44AM 47.9053 -41.5316 264° West 463 533 34,000  Level FlightAware Transoceanic
11:45AM 47.8920 -41.7226 264° West 463 533 34,000  Level FlightAware Transoceanic
11:46AM 47.8784 -41.9136 264° West 463 533 34,000  Level FlightAware Transoceanic
11:47AM 47.8645 -42.1044 264° West 463 533 34,000  Level FlightAware Transoceanic
11:48AM 47.8503 -42.2951 264° West 463 533 34,000  Level FlightAware Transoceanic
11:49AM 47.8357 -42.4857 263° West 463 533 34,000  Level FlightAware Transoceanic
11:50AM 47.8209 -42.6763 263° West 463 533 34,000  Level FlightAware Transoceanic
11:51AM 47.8057 -42.8667 263° West 463 533 34,000  Level FlightAware Transoceanic
11:52AM 47.7902 -43.0570 263° West 463 533 34,000  Level FlightAware Transoceanic
11:53AM 47.7744 -43.2471 263° West 463 533 34,000  Level FlightAware Transoceanic
11:54AM 47.7583 -43.4372 263° West 463 533 34,000  Level FlightAware Transoceanic
11:55AM 47.7419 -43.6272 263° West 463 533 34,000  Level FlightAware Transoceanic
11:56AM 47.7252 -43.8170 262° West 463 533 34,000  Level FlightAware Transoceanic
11:57AM 47.7081 -44.0067 262° West 463 533 34,000  Level FlightAware Transoceanic
11:58AM 47.6908 -44.1963 262° West 463 533 34,000  Level FlightAware Transoceanic
11:59AM 47.6731 -44.3857 262° West 463 533 34,000  Level FlightAware Transoceanic
12:00PM 47.6551 -44.5750 262° West 463 533 34,000  Level FlightAware Transoceanic
12:01PM 47.6368 -44.7642 262° West 463 533 34,000  Level FlightAware Transoceanic
12:02PM 47.6182 -44.9533 262° West 463 533 34,000  Level FlightAware Transoceanic
12:03PM 47.5993 -45.1422 261° West 463 533 34,000  Level FlightAware Transoceanic
12:04PM 47.5801 -45.3310 261° West 463 533 34,000  Level FlightAware Transoceanic
12:05PM 47.5605 -45.5196 261° West 463 533 34,000  Level FlightAware Transoceanic
12:06PM 47.5407 -45.7081 261° West 463 533 34,000  Level FlightAware Transoceanic
12:07PM 47.5205 -45.8965 261° West 463 533 34,000  Level FlightAware Transoceanic
12:08PM 47.5000 -46.0847 261° West 463 533 34,000  Level FlightAware Transoceanic
12:09PM 47.4793 -46.2727 261° West 463 533 34,000  Level FlightAware Transoceanic
12:10PM 47.4582 -46.4606 261° West 463 533 34,000  Level FlightAware Transoceanic
12:11PM 47.4368 -46.6484 260° West 463 533 34,000  Level FlightAware Transoceanic
12:12PM 47.4151 -46.8360 260° West 463 533 34,000  Level FlightAware Transoceanic
12:13PM 47.3931 -47.0235 260° West 463 533 34,000  Level FlightAware Transoceanic
12:14PM 47.3708 -47.2108 260° West 463 533 34,000  Level FlightAware Transoceanic
12:15PM 47.3482 -47.3979 260° West 463 533 34,000  Level FlightAware Transoceanic
12:16PM 47.3253 -47.5849 260° West 463 533 34,000  Level FlightAware Transoceanic
12:17PM 47.3021 -47.7717 260° West 463 533 34,000  Level FlightAware Transoceanic
12:18PM 47.2786 -47.9583 259° West 463 533 34,000  Level FlightAware Transoceanic
12:19PM 47.2547 -48.1448 259° West 463 533 34,000  Level FlightAware Transoceanic
12:20PM 47.2306 -48.3311 259° West 463 533 34,000  Level FlightAware Transoceanic
12:21PM 47.2062 -48.5173 259° West 463 533 34,000  Level FlightAware Transoceanic
12:22PM 47.1815 -48.7032 259° West 463 533 34,000  Level FlightAware Transoceanic
12:23PM 47.1564 -48.8890 259° West 463 533 34,000  Level FlightAware Transoceanic
12:24PM 47.1311 -49.0746 259° West 463 533 34,000  Level FlightAware Transoceanic
12:25PM 47.1055 -49.2601 258° West 463 533 34,000  Level FlightAware Transoceanic
12:26PM 47.0796 -49.4453 258° West 463 533 34,000  Level FlightAware Transoceanic
12:27PM 47.0533 -49.6304 258° West 463 533 34,000  Level FlightAware Transoceanic
12:27PM 47.0660 -49.6290 258° West 455 524 34,000  Level FlightAware
12:28PM 47.0268 -49.8153 258° West 463 533 34,000  Level FlightAware Transoceanic
12:28PM 47.0410 -49.8070 258° West 454 522 34,000  Level FlightAware
12:29PM 47.0270 -49.9080 259° West 454 522 34,000  Level FlightAware
12:30PM 47.0000 -50.0000 259° West 416 479 34,000  Level ETMS Enhanced Traffic Management System
12:30PM 47.0100 -50.0370 259° West 454 522 34,000  Level FlightAware
12:31PM 46.9800 -50.2350 258° West 453 521 34,000  Level FlightAware
12:31PM 46.9670 -50.3350 259° West 453 521 34,000  Level FlightAware
12:32PM 46.9500 -50.4630 259° West 453 521 34,000  Level FlightAware
12:33PM 46.9370 -50.5660 260° West 453 521 34,000  Level FlightAware
12:33PM 46.9230 -50.6680 259° West 453 521 34,000  Level FlightAware
12:34PM 46.9090 -50.7710 259° West 453 521 34,000  Level FlightAware
12:35PM 46.8960 -50.8730 259° West 453 521 34,000  Level FlightAware
12:35PM 46.9470 -51.1230 260° West 456 525 34,000  Level FlightAware
12:36PM 46.8632 -51.0273 260° West  Level FlightAware Approximate
12:36PM 46.9520 -51.2380 274° West 456 525 34,000  Level FlightAware
12:37PM 46.9570 -51.4030 273° West 449 517 34,500 540 Climbing FlightAware
12:38PM 46.9610 -51.5270 273° West 449 517 34,900 300 Climbing FlightAware
12:38PM 46.9650 -51.6620 273° West 450 518 35,000 60 Climbing FlightAware
12:39PM 46.9690 -51.7890 273° West 447 514 35,000  Level FlightAware
12:40PM 46.9720 -51.9070 272° West 444 511 35,000  Level FlightAware
12:40PM 46.9760 -52.0390 273° West 441 507 35,000  Level FlightAware
12:41PM 46.9790 -52.1600 272° West 440 506 35,000  Level FlightAware
12:42PM 46.9820 -52.2760 272° West 439 505 35,000  Level FlightAware
12:42PM 46.9850 -52.4140 272° West 439 505 35,000  Level FlightAware
12:43PM 46.9880 -52.5320 272° West 439 505 35,000  Level FlightAware
12:44PM 46.9920 -52.6630 273° West 439 505 35,000  Level FlightAware
12:45PM 46.9960 -52.7810 273° West 440 506 35,000  Level FlightAware
12:45PM 46.9990 -52.8940 272° West 440 506 35,000  Level FlightAware
12:46PM 47.0030 -53.0380 272° West 441 507 35,000  Level FlightAware
12:47PM 47.0050 -53.1500 272° West 442 509 35,000  Level FlightAware
12:47PM 47.0080 -53.2880 272° West 443 510 35,000  Level FlightAware
12:48PM 47.0090 -53.4080 271° West 444 511 35,000  Level FlightAware
12:49PM 47.0110 -53.5280 271° West 444 511 35,000  Level FlightAware
12:49PM 47.0130 -53.6640 271° West 443 510 35,000  Level FlightAware
12:50PM 47.0140 -53.7860 271° West 443 510 35,000  Level FlightAware
12:51PM 47.0150 -53.9180 271° West 443 510 35,000  Level FlightAware
12:52PM 47.0160 -54.0390 271° West 443 510 35,000  Level FlightAware
12:52PM 47.0170 -54.1550 271° West 443 510 35,000  Level FlightAware
12:53PM 47.0180 -54.2860 271° West 443 510 35,000  Level FlightAware
12:54PM 47.0190 -54.4100 271° West 442 509 35,000  Level FlightAware
12:54PM 47.0200 -54.5410 271° West 442 509 35,000  Level FlightAware
12:55PM 47.0200 -54.6660 270° West 441 507 35,000  Level FlightAware
12:56PM 47.0210 -54.7800 271° West 441 507 35,000  Level FlightAware
12:56PM 47.0210 -54.9160 270° West 441 507 35,000  Level FlightAware
12:57PM 47.0210 -55.0550 270° West 440 506 35,000  Level FlightAware
12:58PM 47.0210 -55.1760 270° West 439 505 35,000  Level FlightAware
12:59PM 47.0200 -55.3310 270° West 438 504 35,000  Level FlightAware
12:59PM 47.0200 -55.4420 270° West 437 503 35,000  Level FlightAware
01:00PM 47.0190 -55.5780 269° West 437 503 35,000  Level FlightAware
01:01PM 47.0190 -55.6460 270° West 437 503 35,000  Level FlightAware
01:01PM 47.0180 -55.7950 269° West 436 502 35,000  Level FlightAware
01:02PM 47.0180 -55.9110 270° West 437 503 35,000  Level FlightAware
01:03PM 47.0160 -56.0780 269° West 437 503 35,000  Level FlightAware
01:04PM 47.0150 -56.2140 269° West 438 504 35,000  Level FlightAware
01:05PM 47.0130 -56.3740 269° West 438 504 35,000  Level FlightAware
01:05PM 47.0120 -56.4960 269° West 438 504 35,000  Level FlightAware
01:06PM 47.0110 -56.6110 269° West 438 504 35,000  Level FlightAware
01:07PM 47.0090 -56.7460 269° West 439 505 35,000  Level FlightAware
01:07PM 47.0070 -56.8630 269° West 439 505 35,000  Level FlightAware
01:08PM 47.0060 -56.9600 269° West 439 505 35,000  Level FlightAware
01:09PM 47.0020 -57.1070 268° West 439 505 35,000  Level FlightAware
01:10PM 47.0000 -57.2080 268° West 439 505 35,000  Level FlightAware
01:10PM 46.9970 -57.3090 268° West 439 505 35,000  Level FlightAware
01:11PM 46.9950 -57.4100 268° West 439 505 35,000  Level FlightAware
01:12PM 46.9930 -57.5110 268° West 439 505 35,000  Level FlightAware
01:12PM 46.9900 -57.6380 268° West 439 505 35,000  Level FlightAware
01:13PM 46.9870 -57.7390 268° West 439 505 35,000  Level FlightAware
01:14PM 46.9850 -57.8400 268° West 439 505 35,000  Level FlightAware
01:14PM 46.9820 -57.9410 268° West 439 505 35,000  Level FlightAware
01:15PM 46.9800 -58.0420 268° West 439 505 35,000  Level FlightAware
01:16PM 46.9750 -58.3690 269° West 426 490 35,000  Level FlightAware
01:17PM 46.9720 -58.5180 268° West 426 490 35,000  Level FlightAware
01:18PM 46.9680 -58.6440 267° West 425 489 35,000  Level FlightAware
01:18PM 46.9640 -58.7610 267° West 426 490 35,000  Level FlightAware
01:19PM 46.9610 -58.8770 268° West 426 490 35,000  Level FlightAware
01:20PM 46.9570 -59.0090 268° West 428 493 35,000  Level FlightAware
01:20PM 46.9530 -59.1210 267° West 428 493 35,000  Level FlightAware
01:21PM 46.9490 -59.2390 267° West 429 494 35,000  Level FlightAware
01:22PM 46.9440 -59.3690 267° West 431 496 35,000  Level FlightAware
01:22PM 46.9400 -59.4830 267° West 432 497 35,000  Level FlightAware
01:23PM 46.9350 -59.6000 266° West 433 498 35,000  Level FlightAware
01:24PM 46.9300 -59.7350 267° West 433 498 35,000  Level FlightAware
01:25PM 46.9250 -59.8530 266° West 434 499 35,000  Level FlightAware
01:25PM 46.9200 -59.9800 267° West 437 503 35,000  Level FlightAware
01:26PM 46.9150 -60.1000 267° West 443 510 35,000  Level FlightAware
01:27PM 46.9100 -60.2190 267° West 446 513 35,000  Level FlightAware
01:27PM 46.9040 -60.3590 266° West 448 516 35,000  Level FlightAware
01:28PM 46.8970 -60.5090 266° West 449 517 35,000  Level FlightAware
01:29PM 46.8900 -60.6440 266° West 452 520 35,000  Level FlightAware
01:30PM 46.8830 -60.7820 266° West 454 522 35,000  Level FlightAware
01:31PM 46.8750 -60.9430 266° West 453 521 35,000  Level FlightAware
01:31PM 46.8690 -61.0690 266° West 453 521 35,000  Level FlightAware
01:32PM 46.8630 -61.1880 266° West 453 521 35,000  Level FlightAware
01:33PM 46.8550 -61.3230 265° West 453 521 35,000  Level FlightAware
01:33PM 46.8490 -61.4270 265° West 453 521 35,000  Level FlightAware
01:34PM 46.8430 -61.5310 265° West 453 521 35,000  Level FlightAware
01:35PM 46.8370 -61.6340 265° West 453 521 35,000  Level FlightAware
01:36PM 46.8290 -61.7640 265° West 453 521 35,000  Level FlightAware
01:36PM 46.8230 -61.8680 265° West 453 521 35,000  Level FlightAware
01:37PM 46.8160 -61.9720 264° West 453 521 35,000  Level FlightAware
01:38PM 46.8050 -62.2250 266° West 448 516 35,000  Level FlightAware
01:38PM 46.7980 -62.3320 265° West 448 516 35,000  Level FlightAware
01:39PM 46.7910 -62.4340 264° West 448 516 35,000  Level FlightAware
01:40PM 46.7830 -62.5360 264° West 448 516 35,000  Level FlightAware
01:40PM 46.7740 -62.6640 264° West 448 516 35,000  Level FlightAware
01:41PM 46.7670 -62.7670 264° West 448 516 35,000  Level FlightAware
01:42PM 46.7590 -62.8690 264° West 448 516 35,000  Level FlightAware
01:42PM 46.7520 -62.9710 264° West 448 516 35,000  Level FlightAware
01:43PM 46.7440 -63.0740 264° West 448 516 35,000  Level FlightAware
01:44PM 46.7350 -63.2010 264° West 448 516 35,000  Level FlightAware
01:45PM 46.7280 -63.3040 264° West 448 516 35,000  Level FlightAware
01:45PM 46.7210 -63.4060 264° West 448 516 35,000  Level FlightAware
01:46PM 46.7130 -63.5080 264° West 448 516 35,000  Level FlightAware
01:47PM 46.7060 -63.6100 264° West 448 516 35,000  Level FlightAware
01:47PM 46.6980 -63.7130 264° West 448 516 35,000  Level FlightAware
01:48PM 46.6667 -64.0000 264° West 440 506 35,000  Level Moncton Center
01:49PM 46.6500 -64.1833 263° West 440 506 35,000  Level Moncton Center
01:50PM 46.6333 -64.3667 263° West 440 506 35,000  Level Moncton Center
01:51PM 46.6167 -64.5500 263° West 440 506 35,000  Level Moncton Center
01:52PM 46.6000 -64.7167 262° West 440 506 35,000  Level Moncton Center
01:53PM 46.6000 -64.8833 270° West 430 495 35,000  Level Moncton Center
01:54PM 46.5833 -65.0500 262° West 430 495 35,000  Level Moncton Center
01:55PM 46.5667 -65.2167 262° West 430 495 35,000  Level Moncton Center
01:56PM 46.5333 -65.4167 256° West 430 495 35,000  Level Moncton Center
01:57PM 46.5167 -65.5833 262° West 430 495 35,000  Level Moncton Center
01:58PM 46.5000 -65.7667 263° West 430 495 35,000  Level Moncton Center
01:59PM 46.5000 -65.9333 270° West 430 495 35,000  Level Moncton Center
02:00PM 46.4833 -66.1000 262° West 430 495 35,000  Level Moncton Center
02:01PM 46.4667 -66.2667 262° West 430 495 35,000  Level Moncton Center
02:02PM 46.4500 -66.4333 262° West 430 495 35,000  Level Moncton Center
02:03PM 46.4167 -66.6000 254° West 430 495 35,000  Level Moncton Center
02:04PM 46.4000 -66.7833 263° West 430 495 35,000  Level Moncton Center
02:05PM 46.4000 -66.9500 270° West 430 495 35,000  Level Moncton Center
02:11PM 46.2990 -67.9610 270° West 436 502 35,000  Level FlightAware
02:11PM 46.2850 -68.0750 260° West 437 503 35,000  Level FlightAware
02:12PM 46.2700 -68.2030 260° West 437 503 35,000  Level FlightAware
02:13PM 46.2560 -68.3180 260° West 436 502 35,000  Level FlightAware
02:13PM 46.2420 -68.4320 260° West 436 502 35,000  Level FlightAware
02:14PM 46.2270 -68.5600 260° West 436 502 35,000  Level FlightAware
02:15PM 46.2130 -68.6740 260° West 437 503 35,000  Level FlightAware
02:15PM 46.1970 -68.8030 260° West 437 503 35,000  Level FlightAware
02:16PM 46.1820 -68.9160 259° West 437 503 35,000  Level FlightAware
02:17PM 46.1680 -69.0310 260° West 437 503 35,000  Level FlightAware
02:18PM 46.1520 -69.1600 260° West 437 503 35,000  Level FlightAware
02:18PM 46.1370 -69.2740 259° West 437 503 35,000  Level FlightAware
02:19PM 46.1210 -69.4020 260° West 437 503 35,000  Level FlightAware
02:20PM 46.1060 -69.5160 259° West 438 504 35,000  Level FlightAware
02:20PM 46.0910 -69.6310 259° West 438 504 35,000  Level FlightAware
02:21PM 46.0740 -69.7600 259° West 439 505 35,000  Level FlightAware
02:22PM 46.0590 -69.8740 259° West 440 506 35,000  Level FlightAware
02:22PM 46.0440 -69.9880 259° West 441 507 35,000  Level FlightAware
02:23PM 46.0220 -70.1520 259° West 441 507 35,000  Level FlightAware
02:24PM 46.0060 -70.2680 259° West 442 509 35,000  Level FlightAware
02:25PM 45.9880 -70.3990 259° West 443 510 35,000  Level FlightAware
02:25PM 45.9740 -70.5110 260° West 443 510 35,000  Level FlightAware
02:26PM 45.9620 -70.6430 263° West 444 511 35,000  Level FlightAware
02:27PM 45.9530 -70.7440 263° West 445 512 35,000 -240 Level FlightAware
02:28PM 45.9390 -70.8770 261° West 443 510 34,700 -1,140 Descending FlightAware
02:28PM 45.9270 -70.9990 262° West 450 518 33,400 -1,740 Descending FlightAware
02:29PM 45.9130 -71.1340 262° West 452 520 32,100 -1,560 Descending FlightAware
02:30PM 45.9010 -71.2570 262° West 453 521 31,100 -1,620 Descending FlightAware
02:30PM 45.8880 -71.3790 261° West 452 520 30,000 -1,320 Descending FlightAware
02:31PM 45.8740 -71.5090 261° West 446 513 29,300 -1,080 Descending FlightAware
02:32PM 45.8610 -71.6360 262° West 441 507 28,500 -1,740 Descending FlightAware
02:32PM 45.8490 -71.7460 261° West 433 498 27,000 -2,280 Descending FlightAware
02:33PM 45.8370 -71.8560 261° West 422 486 25,500 -2,520 Descending FlightAware
02:34PM 45.8230 -71.9850 261° West 414 476 23,500 -2,640 Descending FlightAware
02:35PM 45.8090 -72.1090 261° West 407 468 21,600 -2,280 Descending FlightAware
02:35PM 45.8000 -72.2100 263° West 394 453 20,300 -2,100 Descending FlightAware
02:36PM 45.7890 -72.3250 262° West 384 442 18,700 -2,160 Descending FlightAware
02:37PM 45.7790 -72.4260 262° West 377 434 17,300 -1,980 Descending FlightAware
02:37PM 45.7690 -72.5220 262° West 369 425 16,100 -1,860 Descending FlightAware
02:38PM 45.7580 -72.6320 262° West 360 414 14,700 -1,800 Descending FlightAware
02:39PM 45.7490 -72.7250 262° West 350 403 13,600 -1,740 Descending FlightAware
02:39PM 45.7400 -72.8150 262° West 341 392 12,400 -1,800 Descending FlightAware
02:40PM 45.7300 -72.9120 262° West 329 379 11,100 -1,440 Descending FlightAware
02:41PM 45.7210 -72.9970 261° West 308 354 10,400 -1,140 Descending FlightAware
02:41PM 45.7160 -73.0560 263° West 286 329 9,800 -1,380 Descending FlightAware
02:42PM 45.7130 -73.0850 262° West 274 315 9,400 -1,380 Descending FlightAware
02:42PM 45.7070 -73.1370 261° West 253 291 8,800 -1,320 Descending FlightAware
02:43PM 45.7010 -73.1760 258° West 249 287 8,200 -1,560 Descending FlightAware
02:43PM 45.6950 -73.2140 257° West 249 287 7,500 -1,440 Descending FlightAware
02:43PM 45.6870 -73.2630 257° West 247 284 6,900 -1,200 Descending FlightAware
02:44PM 45.6800 -73.3110 258° West 243 280 6,300 -1,020 Descending FlightAware
02:44PM 45.6730 -73.3510 256° West 231 266 6,000 -900 Descending FlightAware
02:45PM 45.6660 -73.3940 257° West 225 259 5,500 -900 Descending FlightAware
02:45PM 45.6590 -73.4350 256° West 210 242 5,100 -660 Descending FlightAware
02:46PM 45.6540 -73.4670 257° West 190 219 4,900 -480 Descending FlightAware
02:46PM 45.6510 -73.4860 257° West 173 199 4,800 -300 Descending FlightAware
02:47PM 45.6470 -73.5160 259° West 152 175 4,700 -780 Descending FlightAware
02:47PM 45.6430 -73.5400 257° West 155 178 4,100 -1,200 Descending FlightAware
02:47PM 45.6380 -73.5550 245° Southwest 148 170 3,900 -420 Descending FlightAware
02:47PM 45.6320 -73.5650 229° Southwest 149 171 3,900 -480 Level FlightAware
02:48PM 45.6190 -73.5830 224° Southwest 156 180 3,600 -780 Descending FlightAware
02:48PM 45.6030 -73.6040 223° Southwest 153 176 3,200 -840 Descending FlightAware
02:49PM 45.5890 -73.6230 224° Southwest 154 177 2,800 -840 Descending FlightAware
02:49PM 45.5780 -73.6370 222° Southwest 152 175 2,500 -900 Descending FlightAware
02:50PM 45.5600 -73.6620 224° Southwest 154 177 2,000 -840 Descending FlightAware
02:50PM 45.5470 -73.6790 222° Southwest 151 174 1,700 -780 Descending FlightAware
02:51PM 45.5310 -73.6990 221° Southwest 142 163 1,300 -840 Descending FlightAware
02:51PM 45.5240 -73.7090 225° Southwest 142 163 1,100 -780 Descending FlightAware
02:51PM 45.5120 -73.7250 223° Southwest 145 167 800 -780 Descending FlightAware
02:52PM 45.4990 -73.7420 223° Southwest 146 168 400 -780 Descending FlightAware
02:52PM 45.4850 -73.7610 224° Southwest 151 174 100 -720 Descending FlightAware